sensor_id;sensor_type;location;lat;lon;timestamp;P1;durP1;ratioP1;P2;durP2;ratioP2
29776;SDS011;16677;52.224;7.484;2022-11-22T00:02:09;19.33;;;16.63;;
29776;SDS011;16677;52.224;7.484;2022-11-22T00:04:36;20.25;;;16.23;;
29776;SDS011;16677;52.224;7.484;2022-11-22T00:07:03;17.67;;;15.77;;
29776;SDS011;16677;52.224;7.484;2022-11-22T00:09:31;17.65;;;15.85;;
29776;SDS011;16677;52.224;7.484;2022-11-22T00:11:59;17.83;;;15.88;;
29776;SDS011;16677;52.224;7.484;2022-11-22T00:14:26;17.48;;;15.80;;
29776;SDS011;16677;52.224;7.484;2022-11-22T00:16:54;18.33;;;16.33;;
29776;SDS011;16677;52.224;7.484;2022-11-22T00:19:21;16.83;;;15.02;;
29776;SDS011;16677;52.224;7.484;2022-11-22T00:21:49;17.40;;;15.38;;
29776;SDS011;16677;52.224;7.484;2022-11-22T00:24:16;17.45;;;15.05;;
29776;SDS011;16677;52.224;7.484;2022-11-22T00:26:43;16.70;;;15.02;;
29776;SDS011;16677;52.224;7.484;2022-11-22T00:29:11;17.33;;;14.93;;
29776;SDS011;16677;52.224;7.484;2022-11-22T00:31:40;16.60;;;14.77;;
29776;SDS011;16677;52.224;7.484;2022-11-22T00:34:07;16.45;;;14.07;;
29776;SDS011;16677;52.224;7.484;2022-11-22T00:36:34;17.50;;;14.30;;
29776;SDS011;16677;52.224;7.484;2022-11-22T00:39:01;15.85;;;14.15;;
29776;SDS011;16677;52.224;7.484;2022-11-22T00:41:29;15.32;;;13.68;;
29776;SDS011;16677;52.224;7.484;2022-11-22T00:43:56;15.52;;;13.85;;
29776;SDS011;16677;52.224;7.484;2022-11-22T00:46:23;15.48;;;13.88;;
29776;SDS011;16677;52.224;7.484;2022-11-22T00:48:51;15.30;;;13.68;;
29776;SDS011;16677;52.224;7.484;2022-11-22T00:51:17;16.23;;;14.18;;
29776;SDS011;16677;52.224;7.484;2022-11-22T00:53:45;14.75;;;13.25;;
29776;SDS011;16677;52.224;7.484;2022-11-22T00:56:12;14.75;;;13.20;;
29776;SDS011;16677;52.224;7.484;2022-11-22T00:58:39;15.65;;;14.02;;
29776;SDS011;16677;52.224;7.484;2022-11-22T01:01:06;15.05;;;13.43;;
29776;SDS011;16677;52.224;7.484;2022-11-22T01:03:33;15.02;;;13.10;;
29776;SDS011;16677;52.224;7.484;2022-11-22T01:06:03;16.02;;;13.57;;
29776;SDS011;16677;52.224;7.484;2022-11-22T01:08:30;14.88;;;13.27;;
29776;SDS011;16677;52.224;7.484;2022-11-22T01:10:58;14.77;;;12.48;;
29776;SDS011;16677;52.224;7.484;2022-11-22T01:13:27;14.07;;;12.68;;
29776;SDS011;16677;52.224;7.484;2022-11-22T01:15:59;14.68;;;13.18;;
29776;SDS011;16677;52.224;7.484;2022-11-22T01:18:32;14.60;;;12.35;;
29776;SDS011;16677;52.224;7.484;2022-11-22T01:21:02;13.77;;;12.32;;
29776;SDS011;16677;52.224;7.484;2022-11-22T01:23:30;15.25;;;13.27;;
29776;SDS011;16677;52.224;7.484;2022-11-22T01:25:58;14.70;;;12.82;;
29776;SDS011;16677;52.224;7.484;2022-11-22T01:28:25;14.85;;;13.00;;
29776;SDS011;16677;52.224;7.484;2022-11-22T01:30:53;14.20;;;12.43;;
29776;SDS011;16677;52.224;7.484;2022-11-22T01:33:24;15.75;;;12.07;;
29776;SDS011;16677;52.224;7.484;2022-11-22T01:35:55;13.35;;;12.05;;
29776;SDS011;16677;52.224;7.484;2022-11-22T01:38:23;15.23;;;11.95;;
29776;SDS011;16677;52.224;7.484;2022-11-22T01:40:53;15.20;;;12.40;;
29776;SDS011;16677;52.224;7.484;2022-11-22T01:43:22;13.50;;;12.10;;
29776;SDS011;16677;52.224;7.484;2022-11-22T01:45:56;13.10;;;11.77;;
29776;SDS011;16677;52.224;7.484;2022-11-22T01:50:58;15.70;;;12.13;;
29776;SDS011;16677;52.224;7.484;2022-11-22T01:53:47;15.63;;;11.82;;
29776;SDS011;16677;52.224;7.484;2022-11-22T01:56:15;13.77;;;11.43;;
29776;SDS011;16677;52.224;7.484;2022-11-22T01:58:47;14.75;;;12.15;;
29776;SDS011;16677;52.224;7.484;2022-11-22T02:01:18;14.27;;;12.00;;
29776;SDS011;16677;52.224;7.484;2022-11-22T02:03:46;14.73;;;11.63;;
29776;SDS011;16677;52.224;7.484;2022-11-22T02:06:16;14.75;;;12.15;;
29776;SDS011;16677;52.224;7.484;2022-11-22T02:08:50;13.02;;;11.57;;
29776;SDS011;16677;52.224;7.484;2022-11-22T02:11:25;14.45;;;11.10;;
29776;SDS011;16677;52.224;7.484;2022-11-22T02:13:59;12.75;;;11.45;;
29776;SDS011;16677;52.224;7.484;2022-11-22T02:16:30;14.23;;;11.25;;
29776;SDS011;16677;52.224;7.484;2022-11-22T02:18:59;13.80;;;11.10;;
29776;SDS011;16677;52.224;7.484;2022-11-22T02:21:28;14.23;;;11.50;;
29776;SDS011;16677;52.224;7.484;2022-11-22T02:24:00;14.10;;;11.77;;
29776;SDS011;16677;52.224;7.484;2022-11-22T02:26:42;13.18;;;11.85;;
29776;SDS011;16677;52.224;7.484;2022-11-22T02:29:09;13.32;;;11.82;;
29776;SDS011;16677;52.224;7.484;2022-11-22T02:31:40;13.25;;;11.57;;
29776;SDS011;16677;52.224;7.484;2022-11-22T02:34:10;12.95;;;11.65;;
29776;SDS011;16677;52.224;7.484;2022-11-22T02:36:41;13.80;;;12.00;;
29776;SDS011;16677;52.224;7.484;2022-11-22T02:39:11;14.10;;;11.37;;
29776;SDS011;16677;52.224;7.484;2022-11-22T02:41:41;15.23;;;11.77;;
29776;SDS011;16677;52.224;7.484;2022-11-22T02:44:09;15.70;;;12.40;;
29776;SDS011;16677;52.224;7.484;2022-11-22T02:46:47;15.57;;;12.40;;
29776;SDS011;16677;52.224;7.484;2022-11-22T02:49:17;13.80;;;12.27;;
29776;SDS011;16677;52.224;7.484;2022-11-22T02:51:45;13.93;;;12.50;;
29776;SDS011;16677;52.224;7.484;2022-11-22T02:54:15;17.30;;;12.93;;
29776;SDS011;16677;52.224;7.484;2022-11-22T02:56:42;14.63;;;12.67;;
29776;SDS011;16677;52.224;7.484;2022-11-22T02:59:09;16.48;;;12.45;;
29776;SDS011;16677;52.224;7.484;2022-11-22T03:01:36;14.15;;;12.65;;
29776;SDS011;16677;52.224;7.484;2022-11-22T03:04:03;15.73;;;12.50;;
29776;SDS011;16677;52.224;7.484;2022-11-22T03:06:30;14.20;;;12.60;;
29776;SDS011;16677;52.224;7.484;2022-11-22T03:08:57;13.48;;;12.07;;
29776;SDS011;16677;52.224;7.484;2022-11-22T03:11:24;14.30;;;12.32;;
29776;SDS011;16677;52.224;7.484;2022-11-22T03:13:51;14.73;;;13.13;;
29776;SDS011;16677;52.224;7.484;2022-11-22T03:16:18;15.60;;;12.88;;
29776;SDS011;16677;52.224;7.484;2022-11-22T03:18:45;14.63;;;13.10;;
29776;SDS011;16677;52.224;7.484;2022-11-22T03:21:12;14.68;;;12.55;;
29776;SDS011;16677;52.224;7.484;2022-11-22T03:23:39;14.20;;;12.80;;
29776;SDS011;16677;52.224;7.484;2022-11-22T03:26:07;14.43;;;12.70;;
29776;SDS011;16677;52.224;7.484;2022-11-22T03:28:35;14.15;;;12.30;;
29776;SDS011;16677;52.224;7.484;2022-11-22T03:31:05;14.02;;;12.48;;
29776;SDS011;16677;52.224;7.484;2022-11-22T03:33:33;13.20;;;11.83;;
29776;SDS011;16677;52.224;7.484;2022-11-22T03:36:01;13.73;;;12.32;;
29776;SDS011;16677;52.224;7.484;2022-11-22T03:38:28;15.67;;;12.33;;
29776;SDS011;16677;52.224;7.484;2022-11-22T03:40:55;14.68;;;11.70;;
29776;SDS011;16677;52.224;7.484;2022-11-22T03:43:22;14.35;;;12.10;;
29776;SDS011;16677;52.224;7.484;2022-11-22T03:45:49;14.67;;;12.47;;
29776;SDS011;16677;52.224;7.484;2022-11-22T03:48:17;15.75;;;12.43;;
29776;SDS011;16677;52.224;7.484;2022-11-22T03:50:44;15.02;;;12.57;;
29776;SDS011;16677;52.224;7.484;2022-11-22T03:53:11;13.82;;;11.82;;
29776;SDS011;16677;52.224;7.484;2022-11-22T03:55:38;14.00;;;11.13;;
29776;SDS011;16677;52.224;7.484;2022-11-22T03:58:05;16.73;;;12.00;;
29776;SDS011;16677;52.224;7.484;2022-11-22T04:00:33;13.40;;;11.68;;
29776;SDS011;16677;52.224;7.484;2022-11-22T04:03:00;12.43;;;11.13;;
29776;SDS011;16677;52.224;7.484;2022-11-22T04:05:27;13.07;;;11.65;;
29776;SDS011;16677;52.224;7.484;2022-11-22T04:07:53;14.85;;;11.88;;
29776;SDS011;16677;52.224;7.484;2022-11-22T04:10:23;14.13;;;12.57;;
29776;SDS011;16677;52.224;7.484;2022-11-22T04:12:51;13.27;;;11.88;;
29776;SDS011;16677;52.224;7.484;2022-11-22T04:15:22;14.93;;;11.85;;
29776;SDS011;16677;52.224;7.484;2022-11-22T04:17:50;13.13;;;11.68;;
29776;SDS011;16677;52.224;7.484;2022-11-22T04:20:18;13.30;;;11.90;;
29776;SDS011;16677;52.224;7.484;2022-11-22T04:23:07;15.07;;;12.35;;
29776;SDS011;16677;52.224;7.484;2022-11-22T04:25:42;12.73;;;11.20;;
29776;SDS011;16677;52.224;7.484;2022-11-22T04:28:11;12.70;;;11.07;;
29776;SDS011;16677;52.224;7.484;2022-11-22T04:30:40;12.60;;;11.30;;
29776;SDS011;16677;52.224;7.484;2022-11-22T04:33:27;13.90;;;12.05;;
29776;SDS011;16677;52.224;7.484;2022-11-22T04:35:54;13.02;;;11.68;;
29776;SDS011;16677;52.224;7.484;2022-11-22T04:38:21;14.95;;;11.90;;
29776;SDS011;16677;52.224;7.484;2022-11-22T04:40:49;15.75;;;12.40;;
29776;SDS011;16677;52.224;7.484;2022-11-22T04:43:22;17.27;;;12.80;;
29776;SDS011;16677;52.224;7.484;2022-11-22T04:46:10;14.85;;;12.60;;
29776;SDS011;16677;52.224;7.484;2022-11-22T04:48:39;15.40;;;12.10;;
29776;SDS011;16677;52.224;7.484;2022-11-22T04:51:06;13.13;;;11.65;;
29776;SDS011;16677;52.224;7.484;2022-11-22T04:53:52;13.35;;;12.00;;
29776;SDS011;16677;52.224;7.484;2022-11-22T04:56:18;14.65;;;11.70;;
29776;SDS011;16677;52.224;7.484;2022-11-22T04:58:46;13.82;;;12.38;;
29776;SDS011;16677;52.224;7.484;2022-11-22T05:01:16;13.98;;;12.52;;
29776;SDS011;16677;52.224;7.484;2022-11-22T05:03:43;15.98;;;12.55;;
29776;SDS011;16677;52.224;7.484;2022-11-22T05:06:11;15.32;;;12.40;;
29776;SDS011;16677;52.224;7.484;2022-11-22T05:08:39;15.98;;;13.05;;
29776;SDS011;16677;52.224;7.484;2022-11-22T05:11:06;15.20;;;12.80;;
29776;SDS011;16677;52.224;7.484;2022-11-22T05:13:37;14.80;;;12.57;;
29776;SDS011;16677;52.224;7.484;2022-11-22T05:16:07;16.63;;;12.73;;
29776;SDS011;16677;52.224;7.484;2022-11-22T05:18:36;15.65;;;12.38;;
29776;SDS011;16677;52.224;7.484;2022-11-22T05:21:11;13.57;;;11.90;;
29776;SDS011;16677;52.224;7.484;2022-11-22T05:23:39;14.02;;;11.68;;
29776;SDS011;16677;52.224;7.484;2022-11-22T05:26:32;15.65;;;11.77;;
29776;SDS011;16677;52.224;7.484;2022-11-22T05:29:07;13.02;;;11.45;;
29776;SDS011;16677;52.224;7.484;2022-11-22T05:31:36;15.00;;;11.65;;
29776;SDS011;16677;52.224;7.484;2022-11-22T05:34:04;15.00;;;12.30;;
29776;SDS011;16677;52.224;7.484;2022-11-22T05:36:32;16.55;;;12.15;;
29776;SDS011;16677;52.224;7.484;2022-11-22T05:39:01;14.40;;;11.75;;
29776;SDS011;16677;52.224;7.484;2022-11-22T05:41:29;13.18;;;11.15;;
29776;SDS011;16677;52.224;7.484;2022-11-22T05:43:56;16.13;;;12.07;;
29776;SDS011;16677;52.224;7.484;2022-11-22T05:46:25;15.65;;;12.73;;
29776;SDS011;16677;52.224;7.484;2022-11-22T05:48:54;14.20;;;12.38;;
29776;SDS011;16677;52.224;7.484;2022-11-22T05:51:24;15.93;;;12.95;;
29776;SDS011;16677;52.224;7.484;2022-11-22T05:53:59;14.85;;;12.82;;
29776;SDS011;16677;52.224;7.484;2022-11-22T05:56:26;19.10;;;13.10;;
29776;SDS011;16677;52.224;7.484;2022-11-22T05:58:53;16.25;;;13.45;;
29776;SDS011;16677;52.224;7.484;2022-11-22T06:01:21;17.33;;;13.52;;
29776;SDS011;16677;52.224;7.484;2022-11-22T06:03:49;16.75;;;12.95;;
29776;SDS011;16677;52.224;7.484;2022-11-22T06:06:17;21.67;;;14.07;;
29776;SDS011;16677;52.224;7.484;2022-11-22T06:08:45;17.90;;;13.25;;
29776;SDS011;16677;52.224;7.484;2022-11-22T06:13:43;15.68;;;13.00;;
29776;SDS011;16677;52.224;7.484;2022-11-22T06:16:11;15.68;;;12.25;;
29776;SDS011;16677;52.224;7.484;2022-11-22T06:18:38;15.15;;;12.23;;
29776;SDS011;16677;52.224;7.484;2022-11-22T06:21:06;15.23;;;12.80;;
29776;SDS011;16677;52.224;7.484;2022-11-22T06:23:38;17.08;;;12.85;;
29776;SDS011;16677;52.224;7.484;2022-11-22T06:26:08;19.58;;;12.88;;
29776;SDS011;16677;52.224;7.484;2022-11-22T06:28:36;16.33;;;12.63;;
29776;SDS011;16677;52.224;7.484;2022-11-22T06:31:12;14.98;;;12.20;;
29776;SDS011;16677;52.224;7.484;2022-11-22T06:33:44;19.35;;;13.52;;
29776;SDS011;16677;52.224;7.484;2022-11-22T06:36:12;16.50;;;12.60;;
29776;SDS011;16677;52.224;7.484;2022-11-22T06:38:41;18.17;;;13.38;;
29776;SDS011;16677;52.224;7.484;2022-11-22T06:41:10;19.02;;;13.20;;
29776;SDS011;16677;52.224;7.484;2022-11-22T06:43:40;19.17;;;13.48;;
29776;SDS011;16677;52.224;7.484;2022-11-22T06:46:14;17.15;;;13.93;;
29776;SDS011;16677;52.224;7.484;2022-11-22T06:48:45;19.92;;;13.63;;
29776;SDS011;16677;52.224;7.484;2022-11-22T06:51:14;17.75;;;13.90;;
29776;SDS011;16677;52.224;7.484;2022-11-22T06:53:48;19.93;;;14.67;;
29776;SDS011;16677;52.224;7.484;2022-11-22T06:56:17;22.00;;;14.20;;
29776;SDS011;16677;52.224;7.484;2022-11-22T06:58:46;19.35;;;14.45;;
29776;SDS011;16677;52.224;7.484;2022-11-22T07:01:18;21.23;;;14.15;;
29776;SDS011;16677;52.224;7.484;2022-11-22T07:03:53;21.23;;;15.57;;
29776;SDS011;16677;52.224;7.484;2022-11-22T07:06:25;21.85;;;15.45;;
29776;SDS011;16677;52.224;7.484;2022-11-22T07:08:53;25.30;;;16.73;;
29776;SDS011;16677;52.224;7.484;2022-11-22T07:11:24;28.25;;;17.13;;
29776;SDS011;16677;52.224;7.484;2022-11-22T07:13:53;24.85;;;16.35;;
29776;SDS011;16677;52.224;7.484;2022-11-22T07:16:28;24.25;;;15.50;;
29776;SDS011;16677;52.224;7.484;2022-11-22T07:18:57;25.77;;;16.85;;
29776;SDS011;16677;52.224;7.484;2022-11-22T07:21:25;24.05;;;15.35;;
29776;SDS011;16677;52.224;7.484;2022-11-22T07:23:53;25.05;;;15.32;;
29776;SDS011;16677;52.224;7.484;2022-11-22T07:26:21;24.92;;;15.77;;
29776;SDS011;16677;52.224;7.484;2022-11-22T07:28:49;23.23;;;16.15;;
29776;SDS011;16677;52.224;7.484;2022-11-22T07:31:17;22.58;;;15.57;;
29776;SDS011;16677;52.224;7.484;2022-11-22T07:33:44;26.85;;;17.88;;
29776;SDS011;16677;52.224;7.484;2022-11-22T07:38:40;28.83;;;17.60;;
29776;SDS011;16677;52.224;7.484;2022-11-22T07:41:07;25.15;;;16.92;;
29776;SDS011;16677;52.224;7.484;2022-11-22T07:43:50;26.73;;;17.83;;
29776;SDS011;16677;52.224;7.484;2022-11-22T07:46:27;25.85;;;18.60;;
29776;SDS011;16677;52.224;7.484;2022-11-22T07:48:57;29.05;;;18.15;;
29776;SDS011;16677;52.224;7.484;2022-11-22T07:51:26;25.88;;;16.83;;
29776;SDS011;16677;52.224;7.484;2022-11-22T07:53:53;25.00;;;16.38;;
29776;SDS011;16677;52.224;7.484;2022-11-22T07:56:21;29.20;;;19.00;;
29776;SDS011;16677;52.224;7.484;2022-11-22T07:58:48;26.43;;;17.33;;
29776;SDS011;16677;52.224;7.484;2022-11-22T08:01:16;22.50;;;16.38;;
29776;SDS011;16677;52.224;7.484;2022-11-22T08:03:44;24.70;;;16.90;;
29776;SDS011;16677;52.224;7.484;2022-11-22T08:06:14;26.67;;;16.15;;
29776;SDS011;16677;52.224;7.484;2022-11-22T08:08:41;26.63;;;15.38;;
29776;SDS011;16677;52.224;7.484;2022-11-22T08:11:09;25.17;;;15.02;;
29776;SDS011;16677;52.224;7.484;2022-11-22T08:13:37;24.08;;;14.20;;
29776;SDS011;16677;52.224;7.484;2022-11-22T08:16:06;22.83;;;15.07;;
29776;SDS011;16677;52.224;7.484;2022-11-22T08:18:38;29.23;;;15.48;;
29776;SDS011;16677;52.224;7.484;2022-11-22T08:21:07;28.25;;;14.82;;
29776;SDS011;16677;52.224;7.484;2022-11-22T08:23:36;25.47;;;13.97;;
29776;SDS011;16677;52.224;7.484;2022-11-22T08:26:04;26.98;;;13.88;;
29776;SDS011;16677;52.224;7.484;2022-11-22T08:28:34;24.30;;;13.73;;
29776;SDS011;16677;52.224;7.484;2022-11-22T08:31:12;21.25;;;12.88;;
29776;SDS011;16677;52.224;7.484;2022-11-22T08:33:41;24.88;;;13.15;;
29776;SDS011;16677;52.224;7.484;2022-11-22T08:36:08;25.23;;;13.57;;
29776;SDS011;16677;52.224;7.484;2022-11-22T08:38:35;24.27;;;13.10;;
29776;SDS011;16677;52.224;7.484;2022-11-22T09:05:10;19.48;;;10.70;;
29776;SDS011;16677;52.224;7.484;2022-11-22T09:07:42;20.17;;;9.48;;
29776;SDS011;16677;52.224;7.484;2022-11-22T09:10:23;17.98;;;8.00;;
29776;SDS011;16677;52.224;7.484;2022-11-22T09:13:10;20.00;;;8.48;;
29776;SDS011;16677;52.224;7.484;2022-11-22T09:15:47;19.38;;;7.93;;
29776;SDS011;16677;52.224;7.484;2022-11-22T09:18:16;19.35;;;7.90;;
29776;SDS011;16677;52.224;7.484;2022-11-22T09:21:00;15.65;;;7.25;;
29776;SDS011;16677;52.224;7.484;2022-11-22T09:23:44;15.60;;;6.77;;
29776;SDS011;16677;52.224;7.484;2022-11-22T09:26:14;13.98;;;6.72;;
29776;SDS011;16677;52.224;7.484;2022-11-22T09:28:50;17.45;;;6.85;;
29776;SDS011;16677;52.224;7.484;2022-11-22T09:31:19;14.02;;;6.60;;
29776;SDS011;16677;52.224;7.484;2022-11-22T09:33:48;16.38;;;6.60;;
29776;SDS011;16677;52.224;7.484;2022-11-22T09:36:17;16.40;;;6.50;;
29776;SDS011;16677;52.224;7.484;2022-11-22T09:38:49;14.38;;;5.80;;
29776;SDS011;16677;52.224;7.484;2022-11-22T09:44:24;12.45;;;5.15;;
29776;SDS011;16677;52.224;7.484;2022-11-22T09:53:56;14.50;;;4.80;;
29776;SDS011;16677;52.224;7.484;2022-11-22T09:56:34;13.80;;;4.75;;
29776;SDS011;16677;52.224;7.484;2022-11-22T10:01:52;10.13;;;3.57;;
29776;SDS011;16677;52.224;7.484;2022-11-22T10:04:45;15.13;;;4.85;;
29776;SDS011;16677;52.224;7.484;2022-11-22T10:08:10;10.90;;;3.70;;
29776;SDS011;16677;52.224;7.484;2022-11-22T10:10:34;8.53;;;3.40;;
29776;SDS011;16677;52.224;7.484;2022-11-22T10:13:14;12.90;;;3.50;;
29776;SDS011;16677;52.224;7.484;2022-11-22T10:16:02;12.47;;;3.83;;
29776;SDS011;16677;52.224;7.484;2022-11-22T10:19:11;11.37;;;3.30;;
29776;SDS011;16677;52.224;7.484;2022-11-22T10:22:12;7.83;;;3.33;;
29776;SDS011;16677;52.224;7.484;2022-11-22T10:24:42;11.53;;;3.00;;
29776;SDS011;16677;52.224;7.484;2022-11-22T10:27:15;11.13;;;3.47;;
29776;SDS011;16677;52.224;7.484;2022-11-22T10:29:49;8.63;;;2.70;;
29776;SDS011;16677;52.224;7.484;2022-11-22T10:32:27;11.97;;;3.33;;
29776;SDS011;16677;52.224;7.484;2022-11-22T10:41:42;11.43;;;3.23;;
29776;SDS011;16677;52.224;7.484;2022-11-22T10:44:16;10.63;;;2.83;;
29776;SDS011;16677;52.224;7.484;2022-11-22T10:47:20;7.53;;;2.33;;
29776;SDS011;16677;52.224;7.484;2022-11-22T11:03:56;9.00;;;3.70;;
29776;SDS011;16677;52.224;7.484;2022-11-22T11:06:32;4.63;;;2.00;;
29776;SDS011;16677;52.224;7.484;2022-11-22T11:12:43;10.70;;;2.80;;
29776;SDS011;16677;52.224;7.484;2022-11-22T11:15:38;9.23;;;2.83;;
29776;SDS011;16677;52.224;7.484;2022-11-22T11:18:54;7.13;;;2.53;;
29776;SDS011;16677;52.224;7.484;2022-11-22T11:21:54;7.30;;;2.03;;
29776;SDS011;16677;52.224;7.484;2022-11-22T11:24:38;7.87;;;2.97;;
29776;SDS011;16677;52.224;7.484;2022-11-22T11:27:08;9.23;;;2.40;;
29776;SDS011;16677;52.224;7.484;2022-11-22T11:29:41;10.53;;;2.20;;
29776;SDS011;16677;52.224;7.484;2022-11-22T11:32:10;5.57;;;2.33;;
29776;SDS011;16677;52.224;7.484;2022-11-22T11:35:03;6.27;;;2.30;;
29776;SDS011;16677;52.224;7.484;2022-11-22T11:37:36;4.83;;;2.30;;
29776;SDS011;16677;52.224;7.484;2022-11-22T11:40:26;7.40;;;2.40;;
29776;SDS011;16677;52.224;7.484;2022-11-22T11:43:13;8.37;;;2.50;;
29776;SDS011;16677;52.224;7.484;2022-11-22T12:40:33;5.03;;;1.87;;
29776;SDS011;16677;52.224;7.484;2022-11-22T12:43:35;4.50;;;2.00;;
29776;SDS011;16677;52.224;7.484;2022-11-22T12:46:17;5.47;;;2.07;;
29776;SDS011;16677;52.224;7.484;2022-11-22T12:48:55;4.80;;;1.73;;
29776;SDS011;16677;52.224;7.484;2022-11-22T12:54:05;6.33;;;1.90;;
29776;SDS011;16677;52.224;7.484;2022-11-22T12:56:45;9.50;;;2.23;;
29776;SDS011;16677;52.224;7.484;2022-11-22T12:59:40;8.47;;;2.33;;
29776;SDS011;16677;52.224;7.484;2022-11-22T13:02:27;6.60;;;2.23;;
29776;SDS011;16677;52.224;7.484;2022-11-22T13:05:32;6.50;;;2.23;;
29776;SDS011;16677;52.224;7.484;2022-11-22T13:08:42;5.60;;;1.83;;
29776;SDS011;16677;52.224;7.484;2022-11-22T13:11:54;8.23;;;2.20;;
29776;SDS011;16677;52.224;7.484;2022-11-22T13:14:42;5.73;;;2.33;;
29776;SDS011;16677;52.224;7.484;2022-11-22T13:17:15;7.50;;;2.40;;
29776;SDS011;16677;52.224;7.484;2022-11-22T13:20:01;7.33;;;2.60;;
29776;SDS011;16677;52.224;7.484;2022-11-22T13:26:36;5.63;;;2.50;;
29776;SDS011;16677;52.224;7.484;2022-11-22T13:29:29;4.90;;;2.20;;
29776;SDS011;16677;52.224;7.484;2022-11-22T13:34:39;8.90;;;2.10;;
29776;SDS011;16677;52.224;7.484;2022-11-22T13:37:30;4.97;;;1.80;;
29776;SDS011;16677;52.224;7.484;2022-11-22T13:45:51;3.47;;;2.03;;
29776;SDS011;16677;52.224;7.484;2022-11-22T13:53:47;7.37;;;2.40;;
29776;SDS011;16677;52.224;7.484;2022-11-22T13:58:47;8.17;;;2.40;;
29776;SDS011;16677;52.224;7.484;2022-11-22T14:12:28;5.43;;;2.03;;
29776;SDS011;16677;52.224;7.484;2022-11-22T14:15:47;7.23;;;2.33;;
29776;SDS011;16677;52.224;7.484;2022-11-22T14:32:39;4.83;;;2.40;;
29776;SDS011;16677;52.224;7.484;2022-11-22T14:35:28;4.23;;;1.87;;
29776;SDS011;16677;52.224;7.484;2022-11-22T14:41:28;5.67;;;1.70;;
29776;SDS011;16677;52.224;7.484;2022-11-22T14:44:03;7.43;;;2.53;;
29776;SDS011;16677;52.224;7.484;2022-11-22T14:46:50;6.07;;;2.20;;
29776;SDS011;16677;52.224;7.484;2022-11-22T14:49:42;6.03;;;2.10;;
29776;SDS011;16677;52.224;7.484;2022-11-22T14:55:01;4.57;;;2.80;;
29776;SDS011;16677;52.224;7.484;2022-11-22T14:57:35;6.20;;;3.00;;
29776;SDS011;16677;52.224;7.484;2022-11-22T15:06:03;4.80;;;1.83;;
29776;SDS011;16677;52.224;7.484;2022-11-22T15:15:30;8.60;;;2.43;;
29776;SDS011;16677;52.224;7.484;2022-11-22T15:18:23;4.20;;;1.73;;
29776;SDS011;16677;52.224;7.484;2022-11-22T15:21:29;7.43;;;1.97;;
29776;SDS011;16677;52.224;7.484;2022-11-22T15:24:21;5.17;;;1.77;;
29776;SDS011;16677;52.224;7.484;2022-11-22T15:27:27;6.00;;;2.00;;
29776;SDS011;16677;52.224;7.484;2022-11-22T15:30:21;5.80;;;2.20;;
29776;SDS011;16677;52.224;7.484;2022-11-22T15:33:23;6.10;;;2.23;;
29776;SDS011;16677;52.224;7.484;2022-11-22T15:36:41;6.00;;;1.80;;
29776;SDS011;16677;52.224;7.484;2022-11-22T15:40:35;3.90;;;1.67;;
29776;SDS011;16677;52.224;7.484;2022-11-22T15:43:31;4.30;;;2.00;;
29776;SDS011;16677;52.224;7.484;2022-11-22T15:46:22;4.57;;;2.33;;
29776;SDS011;16677;52.224;7.484;2022-11-22T15:49:16;3.93;;;1.87;;
29776;SDS011;16677;52.224;7.484;2022-11-22T15:52:17;6.30;;;2.03;;
29776;SDS011;16677;52.224;7.484;2022-11-22T15:55:18;5.87;;;2.97;;
29776;SDS011;16677;52.224;7.484;2022-11-22T15:58:08;7.50;;;3.90;;
29776;SDS011;16677;52.224;7.484;2022-11-22T16:00:41;5.37;;;2.77;;
29776;SDS011;16677;52.224;7.484;2022-11-22T16:03:13;4.23;;;2.20;;
29776;SDS011;16677;52.224;7.484;2022-11-22T16:05:51;4.80;;;2.23;;
29776;SDS011;16677;52.224;7.484;2022-11-22T16:08:36;3.10;;;2.10;;
29776;SDS011;16677;52.224;7.484;2022-11-22T16:11:20;10.50;;;5.03;;
29776;SDS011;16677;52.224;7.484;2022-11-22T16:13:53;5.37;;;3.40;;
29776;SDS011;16677;52.224;7.484;2022-11-22T16:16:30;9.17;;;3.10;;
29776;SDS011;16677;52.224;7.484;2022-11-22T16:21:55;8.33;;;4.30;;
29776;SDS011;16677;52.224;7.484;2022-11-22T16:24:26;7.63;;;2.97;;
29776;SDS011;16677;52.224;7.484;2022-11-22T16:27:01;5.60;;;2.63;;
29776;SDS011;16677;52.224;7.484;2022-11-22T16:29:37;6.17;;;2.27;;
29776;SDS011;16677;52.224;7.484;2022-11-22T16:32:22;4.40;;;2.53;;
29776;SDS011;16677;52.224;7.484;2022-11-22T16:34:52;4.30;;;2.47;;
29776;SDS011;16677;52.224;7.484;2022-11-22T16:37:45;5.70;;;2.43;;
29776;SDS011;16677;52.224;7.484;2022-11-22T16:40:14;5.37;;;2.30;;
29776;SDS011;16677;52.224;7.484;2022-11-22T16:43:01;4.60;;;2.00;;
29776;SDS011;16677;52.224;7.484;2022-11-22T16:45:43;7.50;;;2.63;;
29776;SDS011;16677;52.224;7.484;2022-11-22T16:49:00;5.03;;;2.70;;
29776;SDS011;16677;52.224;7.484;2022-11-22T16:51:48;4.30;;;2.30;;
29776;SDS011;16677;52.224;7.484;2022-11-22T16:54:41;7.50;;;2.60;;
29776;SDS011;16677;52.224;7.484;2022-11-22T16:57:44;6.60;;;2.53;;
29776;SDS011;16677;52.224;7.484;2022-11-22T17:00:49;3.60;;;2.10;;
29776;SDS011;16677;52.224;7.484;2022-11-22T17:03:41;2.13;;;1.60;;
29776;SDS011;16677;52.224;7.484;2022-11-22T17:06:37;4.17;;;2.00;;
29776;SDS011;16677;52.224;7.484;2022-11-22T17:09:33;4.70;;;2.27;;
29776;SDS011;16677;52.224;7.484;2022-11-22T17:12:23;4.37;;;2.10;;
29776;SDS011;16677;52.224;7.484;2022-11-22T17:14:59;5.43;;;2.40;;
29776;SDS011;16677;52.224;7.484;2022-11-22T17:17:32;2.83;;;1.90;;
29776;SDS011;16677;52.224;7.484;2022-11-22T17:19:59;3.20;;;2.00;;
29776;SDS011;16677;52.224;7.484;2022-11-22T17:22:29;4.10;;;2.27;;
29776;SDS011;16677;52.224;7.484;2022-11-22T17:24:59;8.07;;;2.30;;
